AUA34X LFLL-LOWW
Flight info
| Callsign | AUA34X |
|---|---|
| Flight time | 1h 15m |
| Altitude | 35000 |
| Route | RISOR T47 GEMLA DCT VANAS DCT MEDAM DCT NITAM DCT MOGBO DCT ARALD/N0440F370 DCT ABTAN ABTAN2W |
| Aircraft | A320/M-SDE3FGHIRWY/LB1 |
Departure
| Time | 2026-05-06 14:43 |
|---|---|
| Airport | Lyon Saint-Exupéry Airport (LFLL) |
Arrival
| Time | 2026-05-06 15:59 |
|---|---|
| Airport | Vienna International Airport (LOWW) |
| Time | Latitude | Longitude | Altitude | Speed | Heading |
|---|---|---|---|---|---|
| 2026-05-06 14:27 | 45.72045 | 5.08112 | 797 ft | 0 kts | 343° |
| 2026-05-06 14:32 | 45.72039 | 5.08115 | 797 ft | 4 kts | 342° |
| 2026-05-06 14:32 | 45.72014 | 5.08128 | 797 ft | 4 kts | 336° |
| 2026-05-06 14:32 | 45.71992 | 5.08144 | 797 ft | 4 kts | 329° |
| 2026-05-06 14:33 | 45.71970 | 5.08164 | 797 ft | 4 kts | 321° |
| 2026-05-06 14:33 | 45.71950 | 5.08189 | 797 ft | 4 kts | 318° |
| 2026-05-06 14:33 | 45.71933 | 5.08208 | 798 ft | 2 kts | 342° |
| 2026-05-06 14:33 | 45.71922 | 5.08211 | 798 ft | 2 kts | 3° |
| 2026-05-06 14:34 | 45.71911 | 5.08210 | 798 ft | 0 kts | 14° |
| 2026-05-06 14:35 | 45.71925 | 5.08215 | 797 ft | 7 kts | 15° |
| 2026-05-06 14:35 | 45.71970 | 5.08274 | 798 ft | 7 kts | 83° |
| 2026-05-06 14:36 | 45.71961 | 5.08341 | 799 ft | 10 kts | 104° |
| 2026-05-06 14:36 | 45.71982 | 5.08447 | 801 ft | 15 kts | 26° |
| 2026-05-06 14:36 | 45.72108 | 5.08446 | 803 ft | 22 kts | 358° |
| 2026-05-06 14:36 | 45.72279 | 5.08424 | 799 ft | 25 kts | 356° |
| 2026-05-06 14:37 | 45.72451 | 5.08400 | 797 ft | 25 kts | 354° |
| 2026-05-06 14:37 | 45.72620 | 5.08378 | 793 ft | 25 kts | 356° |
| 2026-05-06 14:37 | 45.72791 | 5.08361 | 791 ft | 24 kts | 354° |
| 2026-05-06 14:37 | 45.72948 | 5.08341 | 789 ft | 22 kts | 355° |
| 2026-05-06 14:38 | 45.73096 | 5.08325 | 786 ft | 21 kts | 349° |
| 2026-05-06 14:38 | 45.73230 | 5.08306 | 784 ft | 18 kts | 357° |
| 2026-05-06 14:38 | 45.73345 | 5.08292 | 782 ft | 17 kts | 355° |
| 2026-05-06 14:38 | 45.73497 | 5.08276 | 780 ft | 22 kts | 355° |
| 2026-05-06 14:39 | 45.73635 | 5.08258 | 779 ft | 18 kts | 355° |
| 2026-05-06 14:39 | 45.73709 | 5.08289 | 777 ft | 9 kts | 40° |
| 2026-05-06 14:39 | 45.73729 | 5.08342 | 777 ft | 3 kts | 79° |
| 2026-05-06 14:39 | 45.73728 | 5.08389 | 777 ft | 9 kts | 98° |
| 2026-05-06 14:40 | 45.73712 | 5.08489 | 777 ft | 8 kts | 104° |
| 2026-05-06 14:40 | 45.73710 | 5.08496 | 777 ft | 0 kts | 104° |
| 2026-05-06 14:40 | 45.73708 | 5.08509 | 777 ft | 5 kts | 104° |
| 2026-05-06 14:41 | 45.73695 | 5.08585 | 776 ft | 8 kts | 104° |
| 2026-05-06 14:41 | 45.73685 | 5.08639 | 777 ft | 5 kts | 104° |
| 2026-05-06 14:41 | 45.73664 | 5.08711 | 777 ft | 9 kts | 136° |
| 2026-05-06 14:41 | 45.73627 | 5.08722 | 779 ft | 2 kts | 175° |
| 2026-05-06 14:42 | 45.73626 | 5.08722 | 779 ft | 0 kts | 175° |
| 2026-05-06 14:42 | 45.73610 | 5.08724 | 779 ft | 15 kts | 175° |
| 2026-05-06 14:43 | 45.73213 | 5.08773 | 789 ft | 97 kts | 175° |
| 2026-05-06 14:43 | 45.72323 | 5.08880 | 800 ft | 160 kts | 175° |
| 2026-05-06 14:43 | 45.71134 | 5.09008 | 1419 ft | 171 kts | 174° |
| 2026-05-06 14:43 | 45.69932 | 5.09129 | 2410 ft | 175 kts | 176° |
| 2026-05-06 14:44 | 45.68711 | 5.09263 | 3374 ft | 177 kts | 175° |
| 2026-05-06 14:44 | 45.67470 | 5.09412 | 4238 ft | 186 kts | 175° |
| 2026-05-06 14:44 | 45.66110 | 5.09589 | 4860 ft | 208 kts | 175° |
| 2026-05-06 14:45 | 45.62920 | 5.10036 | 5893 ft | 250 kts | 168° |
| 2026-05-06 14:45 | 45.61815 | 5.10643 | 6195 ft | 265 kts | 148° |
| 2026-05-06 14:45 | 45.60535 | 5.12575 | 6900 ft | 276 kts | 118° |
| 2026-05-06 14:45 | 45.60053 | 5.15253 | 7704 ft | 283 kts | 97° |
| 2026-05-06 14:46 | 45.59839 | 5.18061 | 8555 ft | 287 kts | 96° |
| 2026-05-06 14:46 | 45.59642 | 5.20918 | 9395 ft | 291 kts | 96° |
| 2026-05-06 14:46 | 45.59444 | 5.23820 | 10154 ft | 298 kts | 96° |
| 2026-05-06 14:46 | 45.59235 | 5.26826 | 10429 ft | 321 kts | 97° |
| 2026-05-06 14:47 | 45.58998 | 5.30115 | 10658 ft | 344 kts | 97° |
| 2026-05-06 14:47 | 45.58739 | 5.33587 | 11105 ft | 358 kts | 97° |
| 2026-05-06 14:47 | 45.58470 | 5.37146 | 11810 ft | 363 kts | 97° |
| 2026-05-06 14:47 | 45.58197 | 5.40753 | 12522 ft | 368 kts | 97° |
| 2026-05-06 14:48 | 45.57920 | 5.44405 | 13252 ft | 372 kts | 97° |
| 2026-05-06 14:48 | 45.57638 | 5.48099 | 13986 ft | 377 kts | 97° |
| 2026-05-06 14:48 | 45.57348 | 5.51833 | 14718 ft | 381 kts | 97° |
| 2026-05-06 14:48 | 45.57057 | 5.55613 | 15418 ft | 385 kts | 97° |
| 2026-05-06 14:49 | 45.56764 | 5.59430 | 16073 ft | 389 kts | 97° |
| 2026-05-06 14:49 | 45.56468 | 5.63281 | 16711 ft | 392 kts | 98° |
| 2026-05-06 14:49 | 45.56167 | 5.67158 | 17332 ft | 395 kts | 98° |
| 2026-05-06 14:49 | 45.55860 | 5.71073 | 17971 ft | 398 kts | 98° |
| 2026-05-06 14:50 | 45.55548 | 5.75021 | 18558 ft | 402 kts | 98° |
| 2026-05-06 14:50 | 45.55233 | 5.78993 | 19112 ft | 405 kts | 98° |
| 2026-05-06 14:50 | 45.54915 | 5.82995 | 19676 ft | 408 kts | 98° |
| 2026-05-06 14:50 | 45.54591 | 5.87028 | 20229 ft | 410 kts | 98° |
| 2026-05-06 14:51 | 45.54262 | 5.91082 | 20765 ft | 413 kts | 99° |
| 2026-05-06 14:51 | 45.53977 | 5.95179 | 21276 ft | 417 kts | 94° |
| 2026-05-06 14:51 | 45.54091 | 5.99334 | 21775 ft | 423 kts | 85° |
| 2026-05-06 14:51 | 45.54484 | 6.03504 | 22275 ft | 426 kts | 84° |
| 2026-05-06 14:52 | 45.54874 | 6.07708 | 22751 ft | 429 kts | 85° |
| 2026-05-06 14:52 | 45.55260 | 6.11938 | 23233 ft | 432 kts | 85° |
| 2026-05-06 14:52 | 45.55645 | 6.16204 | 23653 ft | 435 kts | 85° |
| 2026-05-06 14:52 | 45.56028 | 6.20489 | 23996 ft | 438 kts | 85° |
| 2026-05-06 14:53 | 45.56414 | 6.24818 | 24322 ft | 442 kts | 86° |
| 2026-05-06 14:53 | 45.56725 | 6.29197 | 24643 ft | 444 kts | 91° |
| 2026-05-06 14:53 | 45.56596 | 6.33589 | 24982 ft | 443 kts | 101° |
| 2026-05-06 14:53 | 45.55853 | 6.37810 | 25316 ft | 438 kts | 116° |
| 2026-05-06 14:54 | 45.54417 | 6.41580 | 25535 ft | 432 kts | 131° |
| 2026-05-06 14:54 | 45.52556 | 6.44886 | 25755 ft | 433 kts | 135° |
| 2026-05-06 14:54 | 45.50631 | 6.48194 | 26110 ft | 434 kts | 135° |
| 2026-05-06 14:54 | 45.48684 | 6.51497 | 26452 ft | 436 kts | 135° |
| 2026-05-06 14:55 | 45.46696 | 6.54857 | 26789 ft | 439 kts | 136° |
| 2026-05-06 14:55 | 45.44752 | 6.58145 | 27117 ft | 442 kts | 136° |
| 2026-05-06 14:55 | 45.42770 | 6.61507 | 27401 ft | 444 kts | 136° |
| 2026-05-06 14:55 | 45.40782 | 6.64891 | 27712 ft | 446 kts | 136° |
| 2026-05-06 14:56 | 45.38790 | 6.68285 | 27995 ft | 448 kts | 136° |
| 2026-05-06 14:56 | 45.36787 | 6.71692 | 28266 ft | 450 kts | 137° |
| 2026-05-06 14:56 | 45.34772 | 6.75111 | 28505 ft | 452 kts | 137° |
| 2026-05-06 14:56 | 45.32747 | 6.78547 | 28704 ft | 453 kts | 137° |
| 2026-05-06 14:57 | 45.30721 | 6.81982 | 28963 ft | 455 kts | 137° |
| 2026-05-06 14:57 | 45.28681 | 6.85435 | 29228 ft | 457 kts | 137° |
| 2026-05-06 14:57 | 45.26631 | 6.88897 | 29458 ft | 458 kts | 137° |
| 2026-05-06 14:57 | 45.24582 | 6.92349 | 29794 ft | 457 kts | 138° |
| 2026-05-06 14:58 | 45.22540 | 6.95785 | 30128 ft | 455 kts | 138° |
| 2026-05-06 14:58 | 45.20498 | 6.99211 | 30444 ft | 454 kts | 138° |
| 2026-05-06 14:58 | 45.18480 | 7.02596 | 30714 ft | 453 kts | 138° |
| 2026-05-06 14:58 | 45.16449 | 7.06004 | 31015 ft | 452 kts | 138° |
| 2026-05-06 14:59 | 45.14419 | 7.09408 | 31328 ft | 452 kts | 138° |
| 2026-05-06 14:59 | 45.12388 | 7.12802 | 31617 ft | 451 kts | 138° |
| 2026-05-06 14:59 | 45.10385 | 7.16232 | 31824 ft | 454 kts | 134° |
| 2026-05-06 14:59 | 45.08558 | 7.19896 | 32000 ft | 456 kts | 133° |
| 2026-05-06 15:00 | 45.06736 | 7.23578 | 32218 ft | 456 kts | 133° |
| 2026-05-06 15:00 | 45.04919 | 7.27251 | 32448 ft | 455 kts | 133° |
| 2026-05-06 15:00 | 45.03113 | 7.30922 | 32677 ft | 456 kts | 130° |
| 2026-05-06 15:00 | 45.01619 | 7.34927 | 32895 ft | 468 kts | 118° |
| 2026-05-06 15:01 | 45.00716 | 7.39404 | 33117 ft | 481 kts | 106° |
| 2026-05-06 15:01 | 45.00515 | 7.44119 | 33324 ft | 492 kts | 92° |
| 2026-05-06 15:01 | 45.01049 | 7.48945 | 33563 ft | 503 kts | 79° |
| 2026-05-06 15:01 | 45.02308 | 7.53591 | 33774 ft | 510 kts | 69° |
| 2026-05-06 15:02 | 45.03792 | 7.58157 | 33811 ft | 510 kts | 69° |
| 2026-05-06 15:02 | 45.06755 | 7.67278 | 33813 ft | 511 kts | 69° |
| 2026-05-06 15:03 | 45.09710 | 7.76441 | 33810 ft | 512 kts | 69° |
| 2026-05-06 15:03 | 45.12655 | 7.85626 | 33816 ft | 513 kts | 70° |
| 2026-05-06 15:04 | 45.15602 | 7.94847 | 33822 ft | 513 kts | 70° |
| 2026-05-06 15:04 | 45.18533 | 8.04066 | 33826 ft | 514 kts | 70° |
| 2026-05-06 15:05 | 45.21466 | 8.13321 | 33834 ft | 514 kts | 70° |
| 2026-05-06 15:05 | 45.24401 | 8.22588 | 33846 ft | 515 kts | 70° |
| 2026-05-06 15:06 | 45.27328 | 8.31866 | 33869 ft | 515 kts | 70° |
| 2026-05-06 15:06 | 45.30223 | 8.41085 | 33890 ft | 515 kts | 70° |
| 2026-05-06 15:07 | 45.33131 | 8.50400 | 33915 ft | 515 kts | 70° |
| 2026-05-06 15:07 | 45.36034 | 8.59723 | 33918 ft | 515 kts | 70° |
| 2026-05-06 15:08 | 45.38932 | 8.69040 | 33919 ft | 515 kts | 70° |
| 2026-05-06 15:08 | 45.41817 | 8.78367 | 33910 ft | 515 kts | 70° |
| 2026-05-06 15:09 | 45.44688 | 8.87693 | 33854 ft | 514 kts | 70° |
| 2026-05-06 15:09 | 45.47541 | 8.96974 | 33831 ft | 514 kts | 70° |
| 2026-05-06 15:10 | 45.50407 | 9.06308 | 33807 ft | 514 kts | 71° |
| 2026-05-06 15:10 | 45.53259 | 9.15661 | 33814 ft | 514 kts | 71° |
| 2026-05-06 15:11 | 45.56099 | 9.25029 | 33814 ft | 515 kts | 71° |
| 2026-05-06 15:11 | 45.58942 | 9.34432 | 34063 ft | 516 kts | 71° |
| 2026-05-06 15:12 | 45.61769 | 9.43803 | 34084 ft | 517 kts | 71° |
| 2026-05-06 15:12 | 45.64625 | 9.53304 | 34076 ft | 518 kts | 71° |
| 2026-05-06 15:12 | 45.66043 | 9.58034 | 33832 ft | 518 kts | 71° |
| 2026-05-06 15:13 | 45.67440 | 9.62712 | 33838 ft | 519 kts | 71° |
| 2026-05-06 15:13 | 45.70264 | 9.72202 | 33837 ft | 519 kts | 71° |
| 2026-05-06 15:14 | 45.73095 | 9.81734 | 33840 ft | 520 kts | 71° |
| 2026-05-06 15:14 | 45.75917 | 9.91270 | 33850 ft | 520 kts | 71° |
| 2026-05-06 15:15 | 45.78731 | 10.00815 | 33865 ft | 519 kts | 72° |
| 2026-05-06 15:15 | 45.81538 | 10.10371 | 33883 ft | 521 kts | 71° |
| 2026-05-06 15:16 | 45.84350 | 10.19971 | 33895 ft | 522 kts | 72° |
| 2026-05-06 15:16 | 45.87128 | 10.29513 | 33907 ft | 521 kts | 72° |
| 2026-05-06 15:17 | 45.89915 | 10.39104 | 33911 ft | 521 kts | 72° |
| 2026-05-06 15:17 | 45.92694 | 10.48723 | 33915 ft | 520 kts | 72° |
| 2026-05-06 15:18 | 45.95457 | 10.58325 | 33917 ft | 520 kts | 72° |
| 2026-05-06 15:18 | 45.98220 | 10.67921 | 33918 ft | 520 kts | 72° |
| 2026-05-06 15:19 | 46.00969 | 10.77542 | 33919 ft | 519 kts | 72° |
| 2026-05-06 15:19 | 46.03699 | 10.87155 | 33927 ft | 519 kts | 72° |
| 2026-05-06 15:20 | 46.06417 | 10.96764 | 33936 ft | 517 kts | 72° |
| 2026-05-06 15:20 | 46.09116 | 11.06300 | 33947 ft | 517 kts | 72° |
| 2026-05-06 15:21 | 46.11819 | 11.15885 | 33953 ft | 516 kts | 72° |
| 2026-05-06 15:21 | 46.14505 | 11.25477 | 33949 ft | 515 kts | 72° |
| 2026-05-06 15:22 | 46.17170 | 11.35054 | 33943 ft | 514 kts | 72° |
| 2026-05-06 15:22 | 46.19834 | 11.44637 | 33929 ft | 514 kts | 72° |
| 2026-05-06 15:23 | 46.22487 | 11.54205 | 33895 ft | 513 kts | 72° |
| 2026-05-06 15:23 | 46.25135 | 11.63781 | 33895 ft | 513 kts | 72° |
| 2026-05-06 15:24 | 46.27766 | 11.73366 | 33884 ft | 513 kts | 72° |
| 2026-05-06 15:24 | 46.30379 | 11.82956 | 33887 ft | 513 kts | 72° |
| 2026-05-06 15:25 | 46.32991 | 11.92555 | 33891 ft | 513 kts | 72° |
| 2026-05-06 15:25 | 46.35576 | 12.02095 | 33867 ft | 512 kts | 72° |
| 2026-05-06 15:26 | 46.38176 | 12.11690 | 33892 ft | 512 kts | 72° |
| 2026-05-06 15:26 | 46.40768 | 12.21310 | 33890 ft | 511 kts | 72° |
| 2026-05-06 15:27 | 46.43343 | 12.30917 | 33889 ft | 510 kts | 72° |
| 2026-05-06 15:27 | 46.45899 | 12.40514 | 33895 ft | 511 kts | 72° |
| 2026-05-06 15:28 | 46.48455 | 12.50108 | 33899 ft | 509 kts | 72° |
| 2026-05-06 15:28 | 46.50999 | 12.59694 | 33888 ft | 509 kts | 72° |
| 2026-05-06 15:29 | 46.53532 | 12.69294 | 33887 ft | 509 kts | 72° |
| 2026-05-06 15:29 | 46.56053 | 12.78897 | 33887 ft | 508 kts | 72° |
| 2026-05-06 15:30 | 46.58550 | 12.88423 | 33882 ft | 507 kts | 72° |
| 2026-05-06 15:30 | 46.61060 | 12.98055 | 33884 ft | 505 kts | 72° |
| 2026-05-06 15:31 | 46.63521 | 13.07562 | 33880 ft | 505 kts | 72° |
| 2026-05-06 15:31 | 46.65991 | 13.17134 | 33886 ft | 505 kts | 72° |
| 2026-05-06 15:32 | 46.69556 | 13.29731 | 33880 ft | 506 kts | 64° |
| 2026-05-06 15:32 | 46.72805 | 13.38830 | 33877 ft | 506 kts | 64° |
| 2026-05-06 15:33 | 46.76046 | 13.47925 | 33870 ft | 504 kts | 64° |
| 2026-05-06 15:33 | 46.79261 | 13.57001 | 33870 ft | 503 kts | 64° |
| 2026-05-06 15:34 | 46.82462 | 13.66102 | 33872 ft | 503 kts | 64° |
| 2026-05-06 15:34 | 46.85644 | 13.75178 | 33871 ft | 502 kts | 64° |
| 2026-05-06 15:35 | 46.88833 | 13.84274 | 33870 ft | 502 kts | 64° |
| 2026-05-06 15:35 | 46.91976 | 13.93298 | 33864 ft | 502 kts | 64° |
| 2026-05-06 15:36 | 46.95148 | 14.02428 | 33866 ft | 503 kts | 64° |
| 2026-05-06 15:36 | 46.98330 | 14.11592 | 33863 ft | 503 kts | 64° |
| 2026-05-06 15:37 | 47.01471 | 14.20688 | 33881 ft | 503 kts | 64° |
| 2026-05-06 15:37 | 47.04621 | 14.29833 | 33859 ft | 503 kts | 64° |
| 2026-05-06 15:38 | 47.07770 | 14.39002 | 33868 ft | 502 kts | 64° |
| 2026-05-06 15:38 | 47.10847 | 14.48188 | 33857 ft | 501 kts | 69° |
| 2026-05-06 15:39 | 47.12813 | 14.57932 | 33864 ft | 497 kts | 78° |
| 2026-05-06 15:39 | 47.14498 | 14.67783 | 33863 ft | 498 kts | 78° |
| 2026-05-06 15:40 | 47.16190 | 14.77634 | 33863 ft | 497 kts | 78° |
| 2026-05-06 15:40 | 47.17880 | 14.87499 | 33865 ft | 497 kts | 78° |
| 2026-05-06 15:41 | 47.19548 | 14.97367 | 33867 ft | 497 kts | 78° |
| 2026-05-06 15:41 | 47.21204 | 15.07238 | 33856 ft | 497 kts | 78° |
| 2026-05-06 15:42 | 47.22849 | 15.17048 | 33852 ft | 496 kts | 78° |
| 2026-05-06 15:42 | 47.25461 | 15.26391 | 33847 ft | 499 kts | 53° |
| 2026-05-06 15:43 | 47.29741 | 15.34446 | 33842 ft | 499 kts | 51° |
| 2026-05-06 15:43 | 47.34055 | 15.42460 | 33837 ft | 499 kts | 51° |
| 2026-05-06 15:44 | 47.38353 | 15.50501 | 33839 ft | 499 kts | 51° |
| 2026-05-06 15:44 | 47.42648 | 15.58575 | 33836 ft | 499 kts | 51° |
| 2026-05-06 15:45 | 47.44785 | 15.62602 | 33196 ft | 498 kts | 51° |
| 2026-05-06 15:45 | 47.46925 | 15.66638 | 32270 ft | 500 kts | 51° |
| 2026-05-06 15:45 | 47.49040 | 15.70636 | 31359 ft | 501 kts | 52° |
| 2026-05-06 15:45 | 47.51193 | 15.74714 | 30460 ft | 503 kts | 52° |
| 2026-05-06 15:46 | 47.53348 | 15.78800 | 29466 ft | 504 kts | 52° |
| 2026-05-06 15:46 | 47.55514 | 15.82907 | 28367 ft | 505 kts | 52° |
| 2026-05-06 15:46 | 47.57671 | 15.86998 | 27540 ft | 501 kts | 52° |
| 2026-05-06 15:46 | 47.59795 | 15.91034 | 26814 ft | 495 kts | 52° |
| 2026-05-06 15:47 | 47.61931 | 15.95019 | 26093 ft | 489 kts | 48° |
| 2026-05-06 15:47 | 47.64442 | 15.98351 | 25464 ft | 482 kts | 33° |
| 2026-05-06 15:47 | 47.67359 | 16.00667 | 24827 ft | 473 kts | 18° |
| 2026-05-06 15:47 | 47.70509 | 16.01850 | 24190 ft | 463 kts | 3° |
| 2026-05-06 15:48 | 47.73696 | 16.02240 | 23532 ft | 458 kts | 1° |
| 2026-05-06 15:48 | 47.76857 | 16.02592 | 22839 ft | 454 kts | 1° |
| 2026-05-06 15:48 | 47.80001 | 16.02948 | 22145 ft | 451 kts | 1° |
| 2026-05-06 15:48 | 47.83100 | 16.03306 | 21374 ft | 441 kts | 1° |
| 2026-05-06 15:49 | 47.86135 | 16.03664 | 20285 ft | 435 kts | 1° |
| 2026-05-06 15:49 | 47.89129 | 16.04021 | 19250 ft | 429 kts | 2° |
| 2026-05-06 15:49 | 47.92089 | 16.04378 | 18272 ft | 423 kts | 2° |
| 2026-05-06 15:49 | 47.94998 | 16.04730 | 17184 ft | 412 kts | 2° |
| 2026-05-06 15:50 | 47.97812 | 16.05066 | 15921 ft | 399 kts | 2° |
| 2026-05-06 15:50 | 48.00499 | 16.05380 | 15126 ft | 377 kts | 2° |
| 2026-05-06 15:50 | 48.03033 | 16.05673 | 14558 ft | 352 kts | 2° |
| 2026-05-06 15:50 | 48.05381 | 16.05942 | 13929 ft | 335 kts | 2° |
| 2026-05-06 15:51 | 48.07675 | 16.06212 | 12992 ft | 329 kts | 2° |
| 2026-05-06 15:51 | 48.09951 | 16.06485 | 11899 ft | 327 kts | 2° |
| 2026-05-06 15:51 | 48.12222 | 16.06762 | 10386 ft | 334 kts | 2° |
| 2026-05-06 15:51 | 48.14578 | 16.07048 | 8630 ft | 345 kts | 2° |
| 2026-05-06 15:52 | 48.16953 | 16.07339 | 7512 ft | 336 kts | 2° |
| 2026-05-06 15:52 | 48.19249 | 16.07622 | 6903 ft | 322 kts | 4° |
| 2026-05-06 15:52 | 48.21343 | 16.08426 | 6555 ft | 306 kts | 27° |
| 2026-05-06 15:52 | 48.22920 | 16.10346 | 6421 ft | 282 kts | 53° |
| 2026-05-06 15:53 | 48.23825 | 16.12857 | 6275 ft | 270 kts | 75° |
| 2026-05-06 15:53 | 48.24052 | 16.15590 | 6034 ft | 260 kts | 98° |
| 2026-05-06 15:53 | 48.23631 | 16.18158 | 5731 ft | 250 kts | 119° |
| 2026-05-06 15:53 | 48.22879 | 16.20503 | 5398 ft | 250 kts | 121° |
| 2026-05-06 15:54 | 48.22127 | 16.22843 | 5076 ft | 248 kts | 121° |
| 2026-05-06 15:54 | 48.21390 | 16.25143 | 4750 ft | 240 kts | 121° |
| 2026-05-06 15:54 | 48.20679 | 16.27358 | 4427 ft | 231 kts | 121° |
| 2026-05-06 15:54 | 48.19999 | 16.29473 | 4114 ft | 224 kts | 121° |
| 2026-05-06 15:55 | 48.19333 | 16.31541 | 3807 ft | 216 kts | 122° |
| 2026-05-06 15:55 | 48.18699 | 16.33513 | 3480 ft | 204 kts | 122° |
| 2026-05-06 15:55 | 48.18092 | 16.35394 | 3272 ft | 197 kts | 122° |
| 2026-05-06 15:55 | 48.17499 | 16.37226 | 2999 ft | 193 kts | 122° |
| 2026-05-06 15:56 | 48.16934 | 16.38977 | 2740 ft | 181 kts | 122° |
| 2026-05-06 15:56 | 48.16413 | 16.40598 | 2514 ft | 162 kts | 122° |
| 2026-05-06 15:56 | 48.15949 | 16.42036 | 2317 ft | 146 kts | 124° |
| 2026-05-06 15:56 | 48.15518 | 16.43362 | 2111 ft | 138 kts | 126° |
| 2026-05-06 15:57 | 48.15102 | 16.44642 | 1915 ft | 135 kts | 126° |
| 2026-05-06 15:57 | 48.14694 | 16.45899 | 1739 ft | 134 kts | 126° |
| 2026-05-06 15:57 | 48.14287 | 16.47152 | 1551 ft | 134 kts | 125° |
| 2026-05-06 15:57 | 48.13879 | 16.48407 | 1376 ft | 134 kts | 124° |
| 2026-05-06 15:58 | 48.13476 | 16.49650 | 1181 ft | 133 kts | 124° |
| 2026-05-06 15:58 | 48.13082 | 16.50920 | 988 ft | 135 kts | 124° |
| 2026-05-06 15:58 | 48.12679 | 16.52168 | 814 ft | 133 kts | 127° |
| 2026-05-06 15:58 | 48.12265 | 16.53404 | 637 ft | 131 kts | 125° |
| 2026-05-06 15:59 | 48.11901 | 16.54492 | 614 ft | 100 kts | 116° |
| 2026-05-06 15:59 | 48.11642 | 16.55301 | 617 ft | 61 kts | 116° |
| 2026-05-06 15:59 | 48.11526 | 16.55678 | 618 ft | 29 kts | 108° |
| 2026-05-06 15:59 | 48.11501 | 16.55963 | 610 ft | 28 kts | 85° |
| 2026-05-06 16:00 | 48.11539 | 16.56137 | 618 ft | 12 kts | 32° |
| 2026-05-06 16:00 | 48.11610 | 16.56191 | 615 ft | 11 kts | 27° |
| 2026-05-06 16:00 | 48.11666 | 16.56249 | 615 ft | 9 kts | 29° |
| 2026-05-06 16:00 | 48.11720 | 16.56287 | 610 ft | 8 kts | 25° |
| 2026-05-06 16:01 | 48.11756 | 16.56338 | 618 ft | 6 kts | 74° |
| 2026-05-06 16:01 | 48.11734 | 16.56440 | 618 ft | 16 kts | 116° |
| 2026-05-06 16:01 | 48.11681 | 16.56599 | 612 ft | 18 kts | 117° |
| 2026-05-06 16:01 | 48.11632 | 16.56758 | 610 ft | 12 kts | 114° |
| 2026-05-06 16:02 | 48.11674 | 16.56833 | 610 ft | 10 kts | 22° |
| 2026-05-06 16:02 | 48.11694 | 16.56847 | 619 ft | 0 kts | 25° |